Skip Navigation LinksHome page > Weather > Current weather Skip Navigation Links

Current Weather

Dorval Intl. Apt., Montréal, P.Q.

For information only: do not use for flight planning or navigation.
Latest weather
Observation time Thursday, November 21, 2019 2:00 PM EST
Local time Thursday, November 21, 2019 3:00 PM EST
Flight conditions Marginal Visual Meteorological Conditions
Winds
Wind direction Southwest (230°)
Wind speed 8 mph
Visibility 15 mi.
Sky condition
Ceiling 2,700 ft. broken clouds
Cloud layer broken clouds 2,700 ft.
Temperature 36°F
Dewpoint 28°F
Altimeter 30.10 in.Hg
Derived measurements
Relative humidity 75%
Wind chill 29°F
Density altitude -1588 ft.
Sea-level pressure 30.11 in.Hg
METAR CYUL 211900Z 23007KT 15SM BKN027 02/M02 A3010 RMK SC7 SLP196

Settings

Location code

InnerDrive.Weather 4.0.6770.0 Release CLR 4.0.30319.42000
Copyright ©2018 Inner Drive Technology. All rights reserved. Portions Copyright ©1986-2018 David Braverman.

Find weather

Site navigation


Skip Navigation Links

Place info

Page info

PayPal - The safer, easier way to pay online!

Return home.

Copyright ©2019 Inner Drive Technology. Purveyors of fine, hand-crafted computer software. Page printed 2019-11-21T20:00:51 UTC.